createdAt,value
2018-08-16T00:01:44.496Z,92.50
2018-08-16T00:04:12.464Z,92.50
2018-08-16T00:06:39.985Z,92.70
2018-08-16T00:09:07.481Z,92.80
2018-08-16T00:11:35.049Z,92.90
2018-08-16T00:14:02.552Z,93.00
2018-08-16T00:16:30.060Z,93.10
2018-08-16T00:18:57.572Z,93.00
2018-08-16T00:21:25.070Z,93.20
2018-08-16T00:23:52.577Z,93.30
2018-08-16T00:26:20.057Z,93.40
2018-08-16T00:28:47.632Z,93.50
2018-08-16T00:31:15.474Z,93.40
2018-08-16T00:33:43.750Z,93.60
2018-08-16T00:36:11.270Z,93.60
2018-08-16T00:38:38.766Z,93.70
2018-08-16T00:41:06.487Z,93.80
2018-08-16T00:43:35.070Z,94.00
2018-08-16T00:46:02.588Z,94.20
2018-08-16T00:48:30.102Z,94.30
2018-08-16T00:50:57.595Z,94.50
2018-08-16T00:53:25.105Z,94.60
2018-08-16T00:55:52.598Z,94.50
2018-08-16T00:58:20.119Z,94.60
2018-08-16T01:00:47.613Z,94.40
2018-08-16T01:03:15.125Z,94.40
2018-08-16T01:05:42.635Z,94.40
2018-08-16T01:08:10.155Z,94.50
2018-08-16T01:10:37.670Z,94.70
2018-08-16T01:13:05.472Z,94.80
2018-08-16T01:15:32.966Z,95.10
2018-08-16T01:18:00.500Z,95.20
2018-08-16T01:20:27.994Z,95.30
2018-08-16T01:22:55.761Z,95.40
2018-08-16T01:25:24.018Z,95.50
2018-08-16T01:27:51.531Z,95.50
2018-08-16T01:30:19.071Z,95.50
2018-08-16T01:32:47.389Z,95.50
2018-08-16T01:35:15.689Z,95.50
2018-08-16T01:37:43.207Z,95.60
2018-08-16T01:40:10.892Z,95.50
2018-08-16T01:42:38.403Z,95.60
2018-08-16T01:45:05.890Z,95.50
2018-08-16T01:47:33.406Z,95.70
2018-08-16T01:50:00.903Z,95.80
2018-08-16T01:52:28.418Z,95.80
2018-08-16T01:54:55.918Z,95.70
2018-08-16T01:57:23.429Z,95.80
2018-08-16T01:59:50.916Z,95.80
2018-08-16T02:02:18.419Z,95.80
2018-08-16T02:04:45.902Z,95.90
2018-08-16T02:07:13.852Z,95.90
2018-08-16T02:09:42.282Z,96.00
2018-08-16T02:12:09.795Z,96.30
2018-08-16T02:14:37.290Z,96.10
2018-08-16T02:17:05.038Z,96.20
2018-08-16T02:19:32.559Z,96.30
2018-08-16T02:22:00.050Z,96.30
2018-08-16T02:24:27.576Z,96.10
2018-08-16T02:26:55.070Z,96.10
2018-08-16T02:29:22.579Z,96.00
2018-08-16T02:31:50.086Z,96.00
2018-08-16T02:34:18.369Z,96.30
2018-08-16T02:36:45.907Z,96.20
2018-08-16T02:39:14.090Z,96.20
2018-08-16T02:41:41.570Z,96.20
2018-08-16T02:44:09.090Z,96.30
2018-08-16T02:46:36.781Z,96.40
2018-08-16T02:49:04.289Z,96.70
2018-08-16T02:51:31.782Z,96.70
2018-08-16T02:53:59.288Z,96.80
2018-08-16T02:56:27.703Z,96.80
2018-08-16T02:58:55.449Z,97.00
2018-08-16T03:01:23.705Z,97.10
2018-08-16T03:03:51.245Z,97.10
2018-08-16T03:06:18.789Z,97.00
2018-08-16T03:08:46.430Z,97.30
2018-08-16T03:11:14.211Z,97.50
2018-08-16T03:13:41.738Z,97.50
2018-08-16T03:16:09.233Z,97.60
2018-08-16T03:18:36.836Z,97.70
2018-08-16T03:21:04.349Z,97.80
2018-08-16T03:23:31.874Z,98.00
2018-08-16T03:25:59.394Z,98.00
2018-08-16T03:28:28.591Z,97.90
2018-08-16T03:30:56.133Z,97.90
2018-08-16T03:33:23.658Z,97.70
2018-08-16T03:35:51.150Z,97.60
2018-08-16T03:38:18.654Z,97.40
2018-08-16T03:40:46.252Z,97.40
2018-08-16T03:43:14.682Z,97.20
2018-08-16T03:45:42.243Z,97.20
2018-08-16T03:48:09.762Z,97.10
2018-08-16T03:50:37.271Z,97.00
2018-08-16T03:53:04.987Z,96.90
2018-08-16T03:55:32.490Z,96.90
2018-08-16T03:58:00.000Z,96.80
2018-08-16T04:00:27.479Z,96.80
2018-08-16T04:02:55.001Z,96.90
2018-08-16T04:05:22.493Z,96.80
2018-08-16T04:07:50.007Z,96.80
2018-08-16T04:10:17.508Z,96.70
2018-08-16T04:12:45.074Z,96.60
2018-08-16T04:15:13.222Z,96.60
2018-08-16T04:17:40.734Z,96.50
2018-08-16T04:20:09.307Z,96.50
2018-08-16T04:22:37.568Z,96.40
2018-08-16T04:25:05.095Z,96.40
2018-08-16T04:27:32.606Z,96.30
2018-08-16T04:30:00.144Z,96.30
2018-08-16T04:32:27.644Z,96.20
2018-08-16T04:34:55.933Z,96.30
2018-08-16T04:37:23.456Z,96.30
2018-08-16T04:39:50.987Z,96.30
2018-08-16T04:42:18.486Z,96.40
2018-08-16T04:44:46.850Z,96.20
2018-08-16T04:47:14.354Z,96.20
2018-08-16T04:49:42.023Z,96.20
2018-08-16T04:52:09.558Z,96.30
2018-08-16T04:54:37.090Z,96.30
2018-08-16T04:57:04.667Z,96.30
2018-08-16T04:59:32.136Z,96.40
2018-08-16T05:01:59.623Z,96.10
2018-08-16T05:04:27.160Z,95.50
2018-08-16T05:06:54.658Z,94.70
2018-08-16T05:09:22.186Z,93.70
2018-08-16T05:11:49.674Z,93.50
2018-08-16T05:14:17.181Z,93.40
2018-08-16T05:16:44.672Z,93.50
2018-08-16T05:19:12.218Z,93.70
2018-08-16T05:21:39.716Z,93.40
2018-08-16T05:24:07.520Z,92.90
2018-08-16T05:26:35.027Z,93.00
2018-08-16T05:29:02.557Z,93.00
2018-08-16T05:31:30.303Z,93.00
2018-08-16T05:33:59.523Z,92.90
2018-08-16T05:36:27.010Z,92.90
2018-08-16T05:38:54.528Z,93.00
2018-08-16T05:41:22.046Z,92.80
2018-08-16T05:43:49.579Z,92.30
2018-08-16T05:46:17.850Z,90.80
2018-08-16T05:48:45.482Z,90.80
2018-08-16T05:51:12.974Z,88.20
2018-08-16T05:53:40.484Z,86.60
2018-08-16T05:56:08.450Z,81.30
2018-08-16T05:58:35.967Z,77.00
2018-08-16T06:01:03.481Z,74.20
2018-08-16T06:03:30.971Z,74.20
2018-08-16T06:05:59.151Z,72.00
2018-08-16T06:08:26.742Z,69.60
2018-08-16T06:10:54.278Z,66.80
2018-08-16T06:13:21.790Z,63.30
2018-08-16T06:15:49.278Z,64.50
2018-08-16T06:18:16.954Z,61.50
2018-08-16T06:20:44.450Z,58.60
2018-08-16T06:23:11.971Z,56.50
2018-08-16T06:25:39.471Z,55.10
2018-08-16T06:28:07.395Z,53.60
2018-08-16T06:30:35.001Z,53.20
2018-08-16T06:33:02.494Z,53.20
2018-08-16T06:35:30.086Z,52.30
2018-08-16T06:37:57.713Z,53.90
2018-08-16T06:40:25.470Z,55.40
2018-08-16T06:42:52.969Z,58.60
2018-08-16T06:45:20.479Z,57.90
2018-08-16T06:47:47.989Z,54.90
2018-08-16T06:50:15.615Z,52.80
2018-08-16T06:52:43.194Z,54.20
2018-08-16T06:55:10.990Z,52.60
2018-08-16T06:57:38.485Z,53.90
2018-08-16T07:00:05.982Z,52.50
2018-08-16T07:02:33.501Z,52.20
2018-08-16T07:05:01.068Z,50.80
2018-08-16T07:07:28.538Z,49.90
2018-08-16T07:09:56.021Z,49.10
2018-08-16T07:12:23.593Z,50.00
2018-08-16T07:15:17.564Z,52.80
2018-08-16T07:17:45.080Z,51.40
2018-08-16T07:20:13.360Z,49.70
2018-08-16T07:22:40.851Z,49.70
2018-08-16T07:25:08.890Z,51.20
2018-08-16T07:27:36.508Z,48.40
2018-08-16T07:30:04.119Z,51.00
2018-08-16T07:32:31.793Z,50.80
2018-08-16T07:34:59.299Z,49.20
2018-08-16T07:37:26.963Z,47.40
2018-08-16T07:39:54.460Z,46.30
2018-08-16T07:42:21.966Z,45.00
2018-08-16T07:44:49.462Z,47.10
2018-08-16T07:47:16.997Z,46.10
2018-08-16T07:49:44.496Z,45.50
2018-08-16T07:52:12.103Z,45.40
2018-08-16T07:54:39.526Z,47.50
2018-08-16T07:57:08.319Z,47.50
2018-08-16T07:59:35.870Z,47.40
2018-08-16T08:02:03.371Z,46.20
2018-08-16T08:04:30.865Z,46.70
2018-08-16T08:06:58.423Z,49.20
2018-08-16T08:09:26.140Z,48.60
2018-08-16T08:11:53.546Z,46.40
2018-08-16T08:14:21.029Z,44.70
2018-08-16T08:16:48.595Z,43.00
2018-08-16T08:19:16.127Z,42.00
2018-08-16T08:21:43.648Z,41.20
2018-08-16T08:24:11.162Z,42.70
2018-08-16T08:26:38.689Z,43.20
2018-08-16T08:29:06.916Z,47.60
2018-08-16T08:31:34.446Z,51.20
2018-08-16T08:34:03.626Z,47.50
2018-08-16T08:36:34.523Z,47.40
2018-08-16T08:39:02.072Z,47.00
2018-08-16T08:41:29.551Z,48.50
2018-08-16T08:44:00.622Z,47.00
2018-08-16T08:46:28.111Z,44.90
2018-08-16T08:48:55.809Z,43.50
2018-08-16T08:51:24.228Z,43.50
2018-08-16T08:53:54.262Z,42.60
2018-08-16T08:56:26.431Z,43.10
2018-08-16T08:58:54.721Z,42.80
2018-08-16T09:01:22.366Z,42.80
2018-08-16T09:03:49.872Z,44.90
2018-08-16T09:06:17.363Z,47.30
2018-08-16T09:08:45.022Z,47.90
2018-08-16T09:11:15.102Z,47.90
2018-08-16T09:13:46.026Z,49.50
2018-08-16T09:16:13.521Z,50.60
2018-08-16T09:18:41.026Z,52.50
2018-08-16T09:21:08.912Z,53.40
2018-08-16T09:23:36.490Z,53.50
2018-08-16T09:26:03.998Z,54.90
2018-08-16T09:28:32.253Z,55.40
2018-08-16T09:31:03.229Z,55.40
2018-08-16T09:33:35.447Z,55.20
2018-08-16T09:36:02.955Z,54.20
2018-08-16T09:38:30.475Z,55.10
2018-08-16T09:40:57.998Z,54.50
2018-08-16T09:43:26.402Z,55.00
2018-08-16T09:45:53.901Z,54.90
2018-08-16T09:48:23.968Z,56.30
2018-08-16T09:50:51.481Z,55.70
2018-08-16T09:53:18.982Z,55.80
2018-08-16T09:55:46.678Z,57.30
2018-08-16T09:58:14.185Z,56.00
2018-08-16T10:00:43.275Z,56.40
2018-08-16T10:03:11.409Z,56.90
2018-08-16T10:05:39.620Z,56.10
2018-08-16T10:08:08.630Z,55.80
2018-08-16T10:10:37.001Z,55.50
2018-08-16T10:13:04.493Z,55.20
2018-08-16T10:15:32.005Z,55.10
2018-08-16T10:17:59.515Z,54.00
2018-08-16T10:20:27.800Z,54.80
2018-08-16T10:22:55.462Z,54.70
2018-08-16T10:25:22.962Z,54.60
2018-08-16T10:27:50.458Z,54.80
2018-08-16T10:30:17.980Z,54.50
2018-08-16T10:32:45.544Z,54.30
2018-08-16T10:35:13.060Z,53.50
2018-08-16T10:37:40.543Z,52.60
2018-08-16T10:40:08.827Z,53.00
2018-08-16T10:42:36.473Z,52.20
2018-08-16T10:45:03.984Z,52.80
2018-08-16T10:47:31.506Z,50.90
2018-08-16T10:49:58.993Z,53.50
2018-08-16T10:52:26.656Z,53.20
2018-08-16T10:54:54.169Z,53.10
2018-08-16T10:57:21.693Z,52.80
2018-08-16T10:59:49.182Z,52.80
2018-08-16T11:02:16.845Z,52.70
2018-08-16T11:04:44.354Z,52.70
2018-08-16T11:07:11.859Z,51.40
2018-08-16T11:09:39.342Z,52.50
2018-08-16T11:12:07.917Z,51.90
2018-08-16T11:14:35.494Z,50.70
2018-08-16T11:17:03.007Z,50.40
2018-08-16T11:19:30.524Z,50.90
2018-08-16T11:21:58.029Z,50.90
2018-08-16T11:24:25.786Z,52.10
2018-08-16T11:26:53.298Z,50.60
2018-08-16T11:29:20.854Z,50.40
2018-08-16T11:31:48.310Z,50.30
2018-08-16T11:34:15.874Z,49.40
2018-08-16T11:36:43.385Z,49.80
2018-08-16T11:39:10.914Z,50.50
2018-08-16T11:41:38.422Z,50.30
2018-08-16T11:44:06.008Z,50.00
2018-08-16T11:46:33.534Z,50.70
2018-08-16T11:49:01.795Z,50.60
2018-08-16T11:51:29.310Z,50.30
2018-08-16T11:53:56.944Z,50.60
2018-08-16T11:56:24.464Z,51.60
2018-08-16T11:58:51.974Z,49.80
2018-08-16T12:01:19.450Z,49.70
2018-08-16T12:03:47.031Z,49.30
2018-08-16T12:06:14.573Z,50.20
2018-08-16T12:08:42.122Z,50.20
2018-08-16T12:11:09.833Z,49.80
2018-08-16T12:13:37.364Z,49.00
2018-08-16T12:16:05.002Z,48.60
2018-08-16T12:18:32.502Z,48.80
2018-08-16T12:21:00.803Z,48.30
2018-08-16T12:23:28.273Z,48.20
2018-08-16T12:25:55.877Z,49.00
2018-08-16T12:28:23.394Z,48.40
2018-08-16T12:30:50.895Z,46.70
2018-08-16T12:33:18.400Z,47.30
2018-08-16T12:35:45.992Z,47.80
2018-08-16T12:38:13.752Z,48.50
2018-08-16T12:40:41.296Z,47.80
2018-08-16T12:43:08.976Z,46.40
2018-08-16T12:45:36.633Z,47.20
2018-08-16T12:48:04.127Z,45.60
2018-08-16T12:50:32.410Z,45.70
2018-08-16T12:52:59.933Z,45.60
2018-08-16T12:55:27.518Z,45.30
2018-08-16T12:57:55.035Z,44.00
2018-08-16T13:00:22.520Z,44.20
2018-08-16T13:02:50.034Z,43.90
2018-08-16T13:05:17.531Z,45.00
2018-08-16T13:07:45.066Z,46.60
2018-08-16T13:10:12.574Z,45.80
2018-08-16T13:12:40.087Z,44.80
2018-08-16T13:15:09.141Z,43.80
2018-08-16T13:17:36.867Z,44.00
2018-08-16T13:20:04.375Z,44.20
2018-08-16T13:22:31.872Z,43.90
2018-08-16T13:24:59.401Z,43.90
2018-08-16T13:27:27.007Z,43.30
2018-08-16T13:29:54.514Z,43.60
2018-08-16T13:32:22.003Z,42.90
2018-08-16T13:34:49.505Z,42.80
2018-08-16T13:37:17.106Z,42.50
2018-08-16T13:39:44.575Z,42.90
2018-08-16T13:42:12.096Z,42.40
2018-08-16T13:44:39.595Z,42.80
2018-08-16T13:47:07.109Z,43.70
2018-08-16T13:49:34.617Z,43.60
2018-08-16T13:52:02.117Z,42.70
2018-08-16T13:54:29.623Z,42.40
2018-08-16T13:56:57.910Z,42.20
2018-08-16T13:59:26.267Z,42.20
2018-08-16T14:01:53.790Z,42.20
2018-08-16T14:04:21.338Z,41.60
2018-08-16T14:06:48.819Z,40.60
2018-08-16T14:09:16.480Z,41.20
2018-08-16T14:11:43.991Z,40.70
2018-08-16T14:14:12.266Z,41.50
2018-08-16T14:16:39.785Z,41.40
2018-08-16T14:19:07.434Z,42.70
2018-08-16T14:21:35.047Z,42.30
2018-08-16T14:24:02.542Z,42.40
2018-08-16T14:26:30.060Z,41.50
2018-08-16T14:28:57.565Z,40.90
2018-08-16T14:31:25.071Z,39.80
2018-08-16T14:33:52.554Z,38.60
2018-08-16T14:36:20.513Z,39.40
2018-08-16T14:38:48.032Z,40.50
2018-08-16T14:41:15.799Z,40.20
2018-08-16T14:43:43.298Z,39.60
2018-08-16T14:46:10.809Z,39.70
2018-08-16T14:48:38.316Z,39.70
2018-08-16T14:51:05.880Z,39.70
2018-08-16T14:53:33.382Z,40.50
2018-08-16T14:56:00.876Z,40.10
2018-08-16T14:58:28.382Z,39.60
2018-08-16T15:00:55.903Z,39.00
2018-08-16T15:03:23.395Z,39.50
2018-08-16T15:05:50.914Z,39.30
2018-08-16T15:08:18.404Z,41.00
2018-08-16T15:10:46.156Z,40.40
2018-08-16T15:13:13.581Z,39.90
2018-08-16T15:15:41.090Z,39.30
2018-08-16T15:18:08.915Z,39.10
2018-08-16T15:20:36.567Z,38.40
2018-08-16T15:23:04.083Z,38.60
2018-08-16T15:25:31.651Z,39.10
2018-08-16T15:27:59.141Z,39.50
2018-08-16T15:30:27.762Z,39.40
2018-08-16T15:32:55.546Z,39.40
2018-08-16T15:35:23.068Z,38.90
2018-08-16T15:37:50.568Z,40.60
2018-08-16T15:40:18.082Z,40.30
2018-08-16T15:42:45.799Z,40.50
2018-08-16T15:45:13.397Z,40.40
2018-08-16T15:47:40.884Z,41.60
2018-08-16T15:50:08.563Z,42.60
2018-08-16T15:52:36.077Z,40.70
2018-08-16T15:55:03.626Z,41.40
2018-08-16T15:57:31.145Z,41.40
2018-08-16T15:59:58.639Z,40.60
2018-08-16T16:02:27.071Z,40.50
2018-08-16T16:04:54.554Z,40.20
2018-08-16T16:07:22.065Z,39.90
2018-08-16T16:09:49.639Z,41.90
2018-08-16T16:12:17.394Z,41.80
2018-08-16T16:14:45.047Z,41.10
2018-08-16T16:17:12.575Z,41.30
2018-08-16T16:19:40.137Z,40.70
2018-08-16T16:22:08.073Z,42.10
2018-08-16T16:24:35.800Z,42.30
2018-08-16T16:27:03.311Z,41.90
2018-08-16T16:29:30.797Z,41.90
2018-08-16T16:31:59.075Z,41.60
2018-08-16T16:34:26.790Z,41.60
2018-08-16T16:36:54.317Z,41.70
2018-08-16T16:39:21.818Z,42.70
2018-08-16T16:41:49.319Z,42.30
2018-08-16T16:44:16.918Z,41.70
2018-08-16T16:46:44.441Z,43.10
2018-08-16T16:49:12.429Z,42.80
2018-08-16T16:51:39.938Z,41.80
2018-08-16T16:54:07.754Z,42.00
2018-08-16T16:56:35.451Z,42.40
2018-08-16T16:59:02.958Z,42.40
2018-08-16T17:01:30.553Z,41.50
2018-08-16T17:03:58.058Z,41.40
2018-08-16T17:06:25.808Z,41.20
2018-08-16T17:08:54.074Z,41.60
2018-08-16T17:11:21.594Z,41.60
2018-08-16T17:13:49.118Z,41.70
2018-08-16T17:16:17.187Z,40.80
2018-08-16T17:18:45.026Z,40.80
2018-08-16T17:21:13.021Z,41.50
2018-08-16T17:23:40.535Z,42.00
2018-08-16T17:26:08.373Z,42.70
2018-08-16T17:28:35.867Z,42.70
2018-08-16T17:31:03.387Z,43.50
2018-08-16T17:33:31.032Z,43.60
2018-08-16T17:35:58.580Z,43.90
2018-08-16T17:38:26.975Z,44.20
2018-08-16T17:40:54.521Z,44.20
2018-08-16T17:43:21.997Z,44.30
2018-08-16T17:45:49.631Z,45.00
2018-08-16T17:48:17.898Z,45.40
2018-08-16T17:50:45.483Z,45.30
2018-08-16T17:53:13.021Z,45.00
2018-08-16T17:55:40.525Z,45.20
2018-08-16T17:58:08.394Z,44.20
2018-08-16T18:00:37.012Z,43.90
2018-08-16T18:03:04.486Z,44.30
2018-08-16T18:05:32.006Z,44.70
2018-08-16T18:07:59.534Z,44.70
2018-08-16T18:10:27.031Z,44.70
2018-08-16T18:12:54.614Z,45.00
2018-08-16T18:15:22.156Z,44.90
2018-08-16T18:17:49.654Z,44.90
2018-08-16T18:20:17.913Z,45.20
2018-08-16T18:22:45.459Z,45.20
2018-08-16T18:25:12.949Z,45.10
2018-08-16T18:27:40.455Z,45.30
2018-08-16T18:30:08.503Z,45.30
2018-08-16T18:32:37.031Z,45.30
2018-08-16T18:35:04.558Z,45.20
2018-08-16T18:37:32.065Z,45.40
2018-08-16T18:39:59.562Z,45.30
2018-08-16T18:42:27.090Z,45.50
2018-08-16T18:44:54.739Z,45.80
2018-08-16T18:47:22.263Z,46.10
2018-08-16T18:49:49.773Z,46.20
2018-08-16T18:52:18.054Z,47.00
2018-08-16T18:54:46.236Z,47.00
2018-08-16T18:57:13.795Z,47.10
2018-08-16T18:59:41.370Z,47.10
2018-08-16T19:02:08.902Z,47.30
2018-08-16T19:04:36.486Z,47.40
2018-08-16T19:07:03.994Z,47.40
2018-08-16T19:09:31.509Z,47.60
2018-08-16T19:11:59.034Z,47.20
2018-08-16T19:14:26.618Z,47.00
2018-08-16T19:16:54.187Z,47.40
2018-08-16T19:19:22.844Z,47.90
2018-08-16T19:21:50.385Z,48.40
2018-08-16T19:24:17.891Z,48.80
2018-08-16T19:26:45.453Z,49.10
2018-08-16T19:29:13.329Z,49.80
2018-08-16T19:31:40.830Z,51.00
2018-08-16T19:34:08.328Z,51.10
2018-08-16T19:36:35.839Z,51.60
2018-08-16T19:39:03.357Z,51.50
2018-08-16T19:41:30.866Z,51.20
2018-08-16T19:43:58.430Z,51.30
2018-08-16T19:46:25.943Z,51.30
2018-08-16T19:48:53.446Z,51.70
2018-08-16T19:51:20.929Z,52.20
2018-08-16T19:53:48.439Z,52.60
2018-08-16T19:56:17.273Z,53.50
2018-08-16T19:58:45.004Z,53.50
2018-08-16T20:01:13.263Z,53.70
2018-08-16T20:03:40.967Z,53.70
2018-08-16T20:06:08.403Z,53.80
2018-08-16T20:08:35.899Z,54.00
2018-08-16T20:11:03.573Z,54.40
2018-08-16T20:13:31.286Z,54.50
2018-08-16T20:15:58.813Z,54.50
2018-08-16T20:18:26.454Z,54.60
2018-08-16T20:20:53.939Z,55.10
2018-08-16T20:23:21.454Z,56.20
2018-08-16T20:25:48.977Z,57.10
2018-08-16T20:28:16.962Z,57.30
2018-08-16T20:30:44.476Z,57.40
2018-08-16T20:33:12.194Z,57.30
2018-08-16T20:35:39.690Z,57.50
2018-08-16T20:38:07.851Z,57.60
2018-08-16T20:40:36.570Z,57.70
2018-08-16T20:43:07.760Z,58.00
2018-08-16T20:45:35.493Z,58.20
2018-08-16T20:48:03.026Z,58.50
2018-08-16T20:50:30.549Z,58.70
2018-08-16T20:52:58.115Z,58.50
2018-08-16T20:55:26.019Z,58.50
2018-08-16T20:57:53.536Z,59.30
2018-08-16T21:00:21.050Z,60.00
2018-08-16T21:02:48.544Z,60.90
2018-08-16T21:05:16.838Z,60.50
2018-08-16T21:07:44.368Z,61.30
2018-08-16T21:10:12.237Z,61.20
2018-08-16T21:12:39.803Z,61.40
2018-08-16T21:15:07.417Z,61.50
2018-08-16T21:17:34.990Z,61.40
2018-08-16T21:20:02.496Z,60.90
2018-08-16T21:22:29.987Z,60.90
2018-08-16T21:24:57.504Z,62.10
2018-08-16T21:27:24.999Z,62.80
2018-08-16T21:29:53.171Z,63.80
2018-08-16T21:32:20.715Z,64.30
2018-08-16T21:34:48.215Z,64.20
2018-08-16T21:37:15.873Z,63.10
2018-08-16T21:39:43.407Z,62.90
2018-08-16T21:42:12.723Z,63.70
2018-08-16T21:44:40.249Z,63.60
2018-08-16T21:47:07.808Z,64.10
2018-08-16T21:49:35.483Z,64.50
2018-08-16T21:52:03.047Z,65.80
2018-08-16T21:54:30.522Z,65.50
2018-08-16T21:56:58.014Z,65.50
2018-08-16T21:59:25.812Z,65.90
2018-08-16T22:01:53.328Z,66.00
2018-08-16T22:04:20.824Z,66.20
2018-08-16T22:06:51.631Z,66.40
2018-08-16T22:09:19.134Z,66.70
2018-08-16T22:11:46.840Z,67.20
2018-08-16T22:14:16.507Z,67.50
2018-08-16T22:16:44.078Z,67.80
2018-08-16T22:19:12.130Z,67.40
2018-08-16T22:21:39.610Z,67.10
2018-08-16T22:24:07.901Z,66.60
2018-08-16T22:26:35.530Z,66.70
2018-08-16T22:29:03.037Z,66.90
2018-08-16T22:31:30.566Z,67.10
2018-08-16T22:33:58.836Z,67.70
2018-08-16T22:36:26.821Z,67.70
2018-08-16T22:38:54.354Z,67.60
2018-08-16T22:41:21.833Z,67.70
2018-08-16T22:43:49.344Z,68.00
2018-08-16T22:46:17.292Z,67.60
2018-08-16T22:48:44.986Z,68.00
2018-08-16T22:51:12.939Z,68.40
2018-08-16T22:53:40.471Z,68.60
2018-08-16T22:56:07.958Z,68.00
2018-08-16T22:58:35.484Z,68.50
2018-08-16T23:01:03.009Z,68.50
2018-08-16T23:03:31.281Z,68.90
2018-08-16T23:05:58.783Z,68.90
2018-08-16T23:08:26.439Z,69.00
2018-08-16T23:10:54.382Z,69.30
2018-08-16T23:13:22.639Z,70.10
2018-08-16T23:15:50.154Z,69.50
2018-08-16T23:18:17.655Z,69.60
2018-08-16T23:20:45.262Z,69.70
2018-08-16T23:23:12.935Z,69.80
2018-08-16T23:25:40.422Z,69.80
2018-08-16T23:28:07.921Z,69.90
2018-08-16T23:30:35.591Z,70.20
2018-08-16T23:33:03.132Z,71.20
2018-08-16T23:35:30.643Z,71.10
2018-08-16T23:37:58.158Z,71.50
2018-08-16T23:40:25.830Z,71.70
2018-08-16T23:42:53.335Z,71.80
2018-08-16T23:45:20.842Z,71.40
2018-08-16T23:47:48.341Z,71.60
2018-08-16T23:50:17.124Z,71.50
2018-08-16T23:52:44.617Z,71.80
2018-08-16T23:55:12.846Z,73.20
2018-08-16T23:57:40.814Z,73.00
